Time;durP1;ratioP1;P1;durP2;ratioP2;P2;SDS_P1;SDS_P2;PMS_P1;PMS_P2;Temp;Humidity;BMP_temperature;BMP_pressure;BME280_temperature;BME280_humidity;BME280_pressure;Samples;Min_cycle;Max_cycle;Signal;HPM_P1;HPM_P2
2022/09/11 00:01:06;;;;;;;3.90;1.08;;;15.50;99.90;;;;;;5008301;28;20026;-74
2022/09/11 00:03:33;;;;;;;1.70;0.70;;;15.50;99.90;;;;;;5006991;28;20049;-74
2022/09/11 00:06:09;;;;;;;2.20;0.65;;;15.50;99.90;;;;;;5007212;28;20476;-74
2022/09/11 00:08:36;;;;;;;4.10;1.10;;;15.40;99.90;;;;;;5009098;28;20026;-74
2022/09/11 00:11:15;;;;;;;1.52;0.80;;;15.40;99.90;;;;;;5003805;28;20516;-74
2022/09/11 00:13:41;;;;;;;3.42;1.00;;;15.40;99.90;;;;;;5005097;28;20092;-74
2022/09/11 00:16:17;;;;;;;1.25;0.55;;;15.40;99.90;;;;;;5001320;28;20034;-74
2022/09/11 00:18:43;;;;;;;2.65;0.80;;;15.40;99.90;;;;;;5008279;28;20489;-74
2022/09/11 00:21:09;;;;;;;1.77;0.63;;;15.40;99.90;;;;;;5004612;28;20038;-74
2022/09/11 00:23:34;;;;;;;2.10;0.70;;;15.40;99.90;;;;;;5008858;28;20502;-74
2022/09/11 00:26:03;;;;;;;3.40;0.75;;;15.40;99.90;;;;;;5007174;28;20030;-74
2022/09/11 00:28:29;;;;;;;6.90;0.68;;;15.40;99.90;;;;;;5004315;28;20040;-74
2022/09/11 00:30:59;;;;;;;2.38;0.80;;;15.30;99.90;;;;;;5007093;28;20116;-74
2022/09/11 00:33:26;;;;;;;4.55;0.85;;;15.30;99.90;;;;;;5003306;28;20045;-74
2022/09/11 00:35:59;;;;;;;3.72;0.93;;;15.40;99.90;;;;;;5006123;28;20574;-75
2022/09/11 00:38:27;;;;;;;5.68;1.67;;;15.40;99.90;;;;;;5006406;28;20473;-74
2022/09/11 00:40:54;;;;;;;1.45;0.70;;;15.30;99.90;;;;;;5005186;28;20825;-74
2022/09/11 00:43:21;;;;;;;2.30;1.20;;;15.40;99.90;;;;;;5004779;28;20085;-74
2022/09/11 00:45:53;;;;;;;1.17;0.60;;;15.40;99.90;;;;;;5007345;28;20433;-74
2022/09/11 00:48:23;;;;;;;4.40;0.93;;;15.40;99.90;;;;;;5005499;28;20101;-74
2022/09/11 00:50:50;;;;;;;2.30;1.05;;;15.40;99.90;;;;;;5005368;28;20092;-74
2022/09/11 00:53:20;;;;;;;3.97;1.25;;;15.40;99.90;;;;;;5004417;28;20029;-74
2022/09/11 00:55:51;;;;;;;3.95;0.88;;;15.40;99.90;;;;;;5007533;28;20109;-74
2022/09/11 00:58:22;;;;;;;2.17;0.68;;;15.40;99.90;;;;;;5008531;28;20483;-74
2022/09/11 01:00:51;;;;;;;1.45;0.68;;;15.40;99.90;;;;;;4994854;28;20028;-74
2022/09/11 01:03:16;;;;;;;3.40;0.70;;;15.40;99.90;;;;;;5010492;28;20084;-74
2022/09/11 01:05:43;;;;;;;3.13;0.98;;;15.40;99.90;;;;;;5007243;28;20025;-74
2022/09/11 01:08:09;;;;;;;3.95;0.90;;;15.40;99.90;;;;;;5010032;28;20021;-74
2022/09/11 01:10:57;;;;;;;4.32;1.00;;;15.40;99.90;;;;;;5009949;28;20034;-74
2022/09/11 01:13:33;;;;;;;4.63;1.13;;;15.30;99.90;;;;;;5006439;28;20061;-74
2022/09/11 01:16:08;;;;;;;1.40;0.85;;;15.30;99.90;;;;;;5008508;28;20052;-74
2022/09/11 01:18:43;;;;;;;1.00;0.57;;;15.30;99.90;;;;;;5005506;28;20029;-74
2022/09/11 01:21:15;;;;;;;2.72;0.95;;;15.30;99.90;;;;;;5005038;28;20021;-74
2022/09/11 01:24:26;;;;;;;0.80;0.70;;;15.30;99.90;;;;;;5004784;28;20053;-74
2022/09/11 01:27:17;;;;;;;3.72;0.98;;;15.30;99.90;;;;;;4971896;28;20034;-74
2022/09/11 01:29:59;;;;;;;4.53;1.05;;;15.30;99.90;;;;;;5009917;28;20030;-74
2022/09/11 01:32:59;;;;;;;5.55;0.93;;;15.30;99.90;;;;;;5012498;28;20073;-74
2022/09/11 01:35:55;;;;;;;5.00;1.30;;;15.30;99.90;;;;;;5010655;28;20084;-74
2022/09/11 01:38:45;;;;;;;2.45;0.90;;;15.30;99.90;;;;;;5005296;28;20022;-74
2022/09/11 01:41:19;;;;;;;3.80;1.10;;;15.30;99.90;;;;;;5004946;28;20030;-74
2022/09/11 01:44:05;;;;;;;;;;;15.40;99.90;;;;;;5009381;28;20085;-74
2022/09/11 01:46:36;;;;;;;4.28;0.80;;;15.40;99.90;;;;;;5008824;28;20307;-75
2022/09/11 01:49:09;;;;;;;2.65;0.77;;;15.30;99.90;;;;;;5007412;28;20026;-75
2022/09/11 01:51:39;;;;;;;1.90;0.77;;;15.40;99.90;;;;;;5009817;28;20022;-75
2022/09/11 01:54:13;;;;;;;2.72;0.70;;;15.40;99.90;;;;;;5007912;28;20034;-75
2022/09/11 01:56:46;;;;;;;1.33;0.70;;;15.30;99.90;;;;;;5009641;28;20117;-74
2022/09/11 01:59:15;;;;;;;2.85;0.68;;;15.40;99.90;;;;;;5005783;28;20033;-74
2022/09/11 02:01:49;;;;;;;2.72;0.85;;;15.30;99.90;;;;;;5010120;28;20026;-75
2022/09/11 02:04:30;;;;;;;2.70;0.75;;;15.30;99.90;;;;;;5001076;28;20530;-74
2022/09/11 02:07:08;;;;;;;2.92;1.02;;;15.40;99.90;;;;;;5012244;28;20036;-74
2022/09/11 02:09:58;;;;;;;2.33;0.80;;;15.30;99.90;;;;;;5006030;28;20060;-74
2022/09/11 02:12:29;;;;;;;2.05;0.70;;;15.40;99.90;;;;;;4996514;28;20494;-74
2022/09/11 02:14:55;;;;;;;4.10;0.90;;;15.40;99.90;;;;;;4992969;28;20037;-74
2022/09/11 02:17:56;;;;;;;3.78;0.90;;;15.40;99.90;;;;;;5008231;28;20029;-74
2022/09/11 02:20:22;;;;;;;3.55;0.95;;;15.40;99.90;;;;;;5005478;28;20038;-74
2022/09/11 02:22:47;;;;;;;2.60;0.80;;;15.40;99.90;;;;;;5007499;28;20029;-74
2022/09/11 02:25:14;;;;;;;2.33;0.90;;;15.40;99.90;;;;;;5006297;28;20068;-74
2022/09/11 02:27:40;;;;;;;2.00;1.02;;;15.40;99.90;;;;;;5027707;23;20042;-77
2022/09/11 02:30:06;;;;;;;3.67;1.20;;;15.40;99.90;;;;;;5012533;28;20022;-77
2022/09/11 02:32:35;;;;;;;3.33;1.38;;;15.40;99.90;;;;;;5008137;28;20029;-77
2022/09/11 02:35:01;;;;;;;23.50;2.85;;;15.40;99.90;;;;;;5012551;28;20022;-77
2022/09/11 02:37:39;;;;;;;2.70;1.50;;;15.40;99.90;;;;;;5008011;28;20406;-76
2022/09/11 02:40:36;;;;;;;7.93;2.00;;;15.40;99.90;;;;;;4997879;28;20061;-76
2022/09/11 02:43:25;;;;;;;8.05;1.92;;;15.40;99.90;;;;;;4995927;28;20017;-77
2022/09/11 02:45:53;;;;;;;2.83;1.40;;;15.40;99.90;;;;;;4992429;28;20425;-76
2022/09/11 02:48:42;;;;;;;4.28;1.50;;;15.40;99.90;;;;;;4995920;28;20026;-76
2022/09/11 02:51:38;;;;;;;4.75;1.60;;;15.40;99.90;;;;;;4992054;28;20030;-77
2022/09/11 02:54:37;;;;;;;3.22;1.65;;;15.40;99.90;;;;;;4991164;28;20034;-78
2022/09/11 02:57:15;;;;;;;4.28;1.50;;;15.30;99.90;;;;;;4994976;28;20030;-77
2022/09/11 02:59:48;;;;;;;3.58;1.63;;;15.30;99.90;;;;;;4993991;28;20038;-77
2022/09/11 03:02:17;;;;;;;4.55;1.75;;;15.30;99.90;;;;;;4992139;28;20161;-76
2022/09/11 03:04:43;;;;;;;4.18;1.60;;;15.30;99.90;;;;;;4991833;28;20055;-77
2022/09/11 03:07:08;;;;;;;11.60;1.80;;;15.30;99.90;;;;;;4991832;28;20031;-76
2022/09/11 03:09:34;;;;;;;9.32;2.40;;;15.30;99.90;;;;;;5013383;28;20033;-76
2022/09/11 03:12:01;;;;;;;4.95;1.40;;;15.30;99.90;;;;;;5005037;28;20084;-76
2022/09/11 03:14:26;;;;;;;4.15;1.30;;;15.20;99.90;;;;;;4993339;28;20019;-78
2022/09/11 03:16:52;;;;;;;5.50;1.52;;;15.30;99.90;;;;;;4992215;28;20118;-76
2022/09/11 03:19:18;;;;;;;4.13;1.80;;;15.20;99.90;;;;;;4990634;28;20034;-76
2022/09/11 03:21:43;;;;;;;3.03;1.27;;;15.20;99.90;;;;;;4989056;28;20081;-75
2022/09/11 03:24:09;;;;;;;5.72;1.80;;;15.20;99.90;;;;;;4995319;28;20022;-76
2022/09/11 03:26:38;;;;;;;4.30;1.83;;;15.20;99.90;;;;;;4994302;28;20041;-76
2022/09/11 03:29:04;;;;;;;7.20;1.45;;;15.20;99.90;;;;;;5009823;28;20486;-76
2022/09/11 03:31:29;;;;;;;35.25;5.38;;;15.20;99.90;;;;;;4996069;28;20023;-76
2022/09/11 03:33:56;;;;;;;3.67;1.50;;;15.10;99.90;;;;;;5010624;28;20026;-76
2022/09/11 03:36:21;;;;;;;4.45;1.50;;;15.10;99.90;;;;;;4990573;28;20041;-76
2022/09/11 03:38:47;;;;;;;7.60;1.63;;;15.10;99.90;;;;;;4989187;28;20554;-76
2022/09/11 03:41:14;;;;;;;11.30;1.60;;;15.10;99.90;;;;;;5001826;28;20423;-76
2022/09/11 03:43:39;;;;;;;2.55;1.10;;;15.10;99.90;;;;;;4997548;28;20452;-76
2022/09/11 03:46:05;;;;;;;4.15;1.40;;;15.10;99.90;;;;;;4994699;28;20034;-76
2022/09/11 03:48:31;;;;;;;12.77;1.85;;;15.10;99.90;;;;;;5009991;28;20029;-76
2022/09/11 03:50:57;;;;;;;3.30;1.10;;;15.00;99.90;;;;;;4993958;28;20041;-75
2022/09/11 03:53:24;;;;;;;5.07;1.67;;;15.00;99.90;;;;;;4996014;28;20097;-75
2022/09/11 03:55:50;;;;;;;5.47;1.75;;;15.00;99.90;;;;;;4993633;28;20057;-76
2022/09/11 03:58:17;;;;;;;5.38;1.77;;;15.00;99.90;;;;;;4995697;28;20030;-76
2022/09/11 04:00:44;;;;;;;3.72;1.20;;;15.10;99.90;;;;;;5003209;28;20026;-76
2022/09/11 04:03:17;;;;;;;1.90;1.08;;;15.10;99.90;;;;;;4990602;28;20368;-76
2022/09/11 04:05:54;;;;;;;2.08;1.33;;;15.10;99.90;;;;;;5009421;28;20038;-76
2022/09/11 04:08:19;;;;;;;2.20;1.25;;;15.10;99.90;;;;;;4989554;28;20447;-76
2022/09/11 04:10:45;;;;;;;5.60;1.90;;;15.10;99.90;;;;;;4991487;28;20034;-75
2022/09/11 04:13:10;;;;;;;1.98;1.23;;;15.10;99.90;;;;;;4991298;28;20050;-75
2022/09/11 04:15:36;;;;;;;4.57;1.92;;;15.00;99.90;;;;;;4994771;28;20044;-76
2022/09/11 04:18:06;;;;;;;2.97;1.20;;;15.10;99.90;;;;;;5007384;28;20473;-76
2022/09/11 04:20:31;;;;;;;7.47;1.95;;;15.10;99.90;;;;;;4991246;28;20062;-76
2022/09/11 04:22:57;;;;;;;12.35;2.30;;;15.10;99.90;;;;;;4993553;28;20594;-76
2022/09/11 04:25:23;;;;;;;3.42;1.40;;;15.10;99.90;;;;;;5010089;28;20022;-76
2022/09/11 04:27:48;;;;;;;6.45;1.77;;;15.10;99.90;;;;;;4990750;28;20041;-76
2022/09/11 04:30:14;;;;;;;5.15;1.92;;;15.10;99.90;;;;;;5008095;28;20034;-76
2022/09/11 04:32:40;;;;;;;3.25;1.23;;;15.10;99.90;;;;;;4996350;28;20043;-76
2022/09/11 04:35:06;;;;;;;4.50;1.23;;;15.00;99.90;;;;;;4995211;28;20146;-76
2022/09/11 04:37:34;;;;;;;6.30;1.67;;;15.10;99.90;;;;;;4997999;28;20034;-77
2022/09/11 04:40:00;;;;;;;3.38;1.40;;;15.10;99.90;;;;;;5001582;28;20033;-76
2022/09/11 04:42:25;;;;;;;1.85;1.23;;;15.00;99.90;;;;;;5007173;28;20031;-76
2022/09/11 04:44:51;;;;;;;3.25;1.35;;;15.10;99.90;;;;;;4993510;28;20027;-76
2022/09/11 04:47:18;;;;;;;7.47;1.85;;;15.00;99.90;;;;;;4993662;28;20082;-78
2022/09/11 04:49:45;;;;;;;5.32;1.40;;;15.10;99.90;;;;;;4992590;28;20058;-78
2022/09/11 04:52:11;;;;;;;3.90;1.63;;;15.00;99.90;;;;;;4992669;28;20027;-78
2022/09/11 04:54:37;;;;;;;2.95;1.35;;;15.10;99.90;;;;;;4999208;28;20069;-77
2022/09/11 04:57:03;;;;;;;3.03;1.02;;;15.10;99.90;;;;;;5006056;28;20042;-77
2022/09/11 04:59:28;;;;;;;4.30;1.27;;;15.00;99.90;;;;;;4997439;28;20026;-76
2022/09/11 05:01:54;;;;;;;1.63;1.27;;;15.00;99.90;;;;;;4993330;28;20029;-76
2022/09/11 05:04:20;;;;;;;3.08;1.48;;;15.10;99.90;;;;;;4994018;28;20053;-76
2022/09/11 05:06:49;;;;;;;7.90;1.75;;;15.00;99.90;;;;;;4996077;28;20427;-76
2022/09/11 05:09:16;;;;;;;3.85;1.58;;;15.10;99.90;;;;;;4990980;28;20033;-76
2022/09/11 05:11:42;;;;;;;3.33;1.30;;;15.00;99.90;;;;;;5008918;28;20034;-76
2022/09/11 05:14:08;;;;;;;4.63;1.20;;;15.00;99.90;;;;;;5007719;28;20079;-76
2022/09/11 05:16:35;;;;;;;3.97;1.50;;;15.10;99.90;;;;;;5005612;28;20026;-76
2022/09/11 05:19:04;;;;;;;3.50;1.90;;;15.10;99.90;;;;;;4996800;28;20022;-76
2022/09/11 05:21:30;;;;;;;2.28;1.17;;;15.10;99.90;;;;;;5009856;28;20038;-76
2022/09/11 05:23:58;;;;;;;4.97;1.20;;;15.10;99.90;;;;;;4994958;28;20053;-75
2022/09/11 05:26:26;;;;;;;3.92;1.73;;;15.10;99.90;;;;;;4995117;28;20033;-75
2022/09/11 05:29:03;;;;;;;2.95;1.65;;;15.10;99.90;;;;;;4993403;28;20399;-76
2022/09/11 05:31:30;;;;;;;2.75;1.33;;;15.00;99.90;;;;;;4993640;28;20527;-76
2022/09/11 05:33:57;;;;;;;2.58;1.63;;;15.10;99.90;;;;;;4994263;28;20033;-75
2022/09/11 05:36:25;;;;;;;1.52;1.00;;;15.10;99.90;;;;;;4992142;28;20034;-75
2022/09/11 05:38:51;;;;;;;4.05;1.38;;;15.10;99.90;;;;;;4991761;28;20087;-75
2022/09/11 05:41:17;;;;;;;4.13;1.02;;;15.10;99.90;;;;;;4992031;28;20024;-73
2022/09/11 05:43:43;;;;;;;4.20;1.35;;;15.10;99.90;;;;;;4994245;28;20056;-74
2022/09/11 05:46:11;;;;;;;4.03;1.30;;;15.10;99.90;;;;;;4991674;28;20073;-74
2022/09/11 05:48:38;;;;;;;2.42;0.93;;;15.10;99.90;;;;;;5001014;28;20085;-74
2022/09/11 05:51:08;;;;;;;3.35;1.30;;;15.20;99.90;;;;;;4994395;28;20030;-74
2022/09/11 05:53:34;;;;;;;3.95;1.30;;;15.10;99.90;;;;;;4992676;28;20026;-74
2022/09/11 05:56:14;;;;;;;13.20;1.70;;;15.10;99.90;;;;;;4986443;28;20030;-74
2022/09/11 05:58:41;;;;;;;5.68;1.60;;;15.20;99.90;;;;;;4994277;28;20026;-74
2022/09/11 06:01:13;;;;;;;21.15;2.63;;;15.20;99.90;;;;;;5007763;28;20791;-74
2022/09/11 06:03:39;;;;;;;3.63;1.30;;;15.20;99.90;;;;;;5002525;28;20034;-74
2022/09/11 06:06:08;;;;;;;4.65;1.33;;;15.20;99.90;;;;;;4996629;28;20034;-74
2022/09/11 06:08:34;;;;;;;2.92;1.60;;;15.20;99.90;;;;;;4996090;28;20022;-74
2022/09/11 06:11:02;;;;;;;2.45;1.50;;;15.30;99.90;;;;;;4991062;28;20379;-74
2022/09/11 06:13:29;;;;;;;3.35;1.20;;;15.30;99.90;;;;;;4994027;28;20019;-75
2022/09/11 06:15:55;;;;;;;1.88;1.27;;;15.30;99.90;;;;;;4992046;28;20029;-74
2022/09/11 06:18:21;;;;;;;2.58;1.65;;;15.40;99.90;;;;;;4992234;28;20030;-75
2022/09/11 06:20:57;;;;;;;2.28;1.45;;;15.40;99.90;;;;;;4990579;28;20483;-74
2022/09/11 06:23:23;;;;;;;4.20;1.70;;;15.40;99.90;;;;;;4995433;28;20054;-75
2022/09/11 06:25:49;;;;;;;2.55;1.38;;;15.40;99.90;;;;;;4990553;28;20061;-74
2022/09/11 06:28:15;;;;;;;5.38;1.88;;;15.40;99.90;;;;;;4988641;28;20026;-74
2022/09/11 06:30:40;;;;;;;3.13;1.40;;;15.50;99.90;;;;;;4991740;28;20045;-74
2022/09/11 06:33:06;;;;;;;3.20;1.13;;;15.50;99.90;;;;;;4989567;28;20036;-74
2022/09/11 06:35:32;;;;;;;3.42;1.45;;;15.50;99.90;;;;;;5007520;28;20041;-75
2022/09/11 06:37:58;;;;;;;4.38;2.03;;;15.60;99.90;;;;;;4996911;28;20109;-74
2022/09/11 06:40:24;;;;;;;2.88;1.48;;;15.60;99.90;;;;;;5007145;28;20034;-74
2022/09/11 06:42:50;;;;;;;2.33;1.40;;;15.60;99.90;;;;;;4988654;28;20018;-75
2022/09/11 06:45:16;;;;;;;3.30;1.50;;;15.70;99.90;;;;;;5003392;28;20857;-75
2022/09/11 06:47:43;;;;;;;2.65;1.30;;;15.70;99.90;;;;;;4996733;28;20034;-75
2022/09/11 06:50:10;;;;;;;7.03;2.10;;;15.70;99.90;;;;;;4988304;28;20022;-74
2022/09/11 06:52:36;;;;;;;5.20;1.75;;;15.80;99.90;;;;;;4989607;28;20027;-75
2022/09/11 06:55:03;;;;;;;3.30;1.50;;;15.80;99.90;;;;;;4995122;28;20292;-75
2022/09/11 06:57:28;;;;;;;2.88;1.52;;;15.80;99.90;;;;;;4989369;28;20046;-74
2022/09/11 06:59:56;;;;;;;5.28;1.40;;;15.80;99.90;;;;;;5008386;28;20039;-75
2022/09/11 07:02:22;;;;;;;2.17;1.50;;;15.80;99.90;;;;;;4987237;28;20027;-76
2022/09/11 07:04:47;;;;;;;3.53;1.38;;;15.90;99.90;;;;;;4985970;28;20045;-75
2022/09/11 07:07:13;;;;;;;2.58;1.45;;;15.80;99.90;;;;;;5005011;28;20411;-75
2022/09/11 07:09:39;;;;;;;4.40;1.30;;;15.90;99.90;;;;;;5008258;28;21465;-75
2022/09/11 07:12:04;;;;;;;2.55;1.63;;;15.90;99.90;;;;;;5004178;28;20061;-75
2022/09/11 07:14:31;;;;;;;4.40;1.40;;;15.90;99.90;;;;;;4987653;28;20533;-74
2022/09/11 07:16:57;;;;;;;2.03;1.35;;;15.90;99.90;;;;;;4988265;28;20395;-75
2022/09/11 07:19:26;;;;;;;2.72;1.35;;;15.90;99.90;;;;;;4984047;28;20046;-75
2022/09/11 07:21:52;;;;;;;2.72;1.38;;;16.00;99.90;;;;;;4985229;28;20479;-75
2022/09/11 07:24:17;;;;;;;2.80;1.30;;;16.00;99.90;;;;;;4990692;28;20037;-75
2022/09/11 07:26:43;;;;;;;3.42;1.52;;;16.00;99.90;;;;;;5005226;28;20037;-77
2022/09/11 07:29:11;;;;;;;4.70;1.50;;;16.10;99.90;;;;;;4991733;28;20022;-75
2022/09/11 07:31:37;;;;;;;1.75;1.13;;;16.10;99.90;;;;;;4994856;28;20035;-76
2022/09/11 07:34:03;;;;;;;2.40;1.40;;;16.10;99.90;;;;;;4983828;28;20133;-76
2022/09/11 07:36:34;;;;;;;2.65;1.40;;;16.20;99.90;;;;;;4989970;28;20138;-75
2022/09/11 07:39:00;;;;;;;1.45;1.02;;;16.30;99.90;;;;;;4992456;28;20026;-75
2022/09/11 07:41:27;;;;;;;3.13;1.60;;;16.30;99.90;;;;;;5009597;28;20033;-75
2022/09/11 07:43:55;;;;;;;3.72;1.05;;;16.40;99.90;;;;;;4989539;28;20113;-75
2022/09/11 07:46:21;;;;;;;3.97;1.30;;;16.40;99.90;;;;;;4997500;28;20030;-75
2022/09/11 07:48:47;;;;;;;2.50;0.95;;;16.40;99.90;;;;;;4992176;28;20506;-75
2022/09/11 07:51:16;;;;;;;2.67;1.30;;;16.50;99.90;;;;;;4993406;28;20031;-75
2022/09/11 07:53:44;;;;;;;3.67;1.00;;;16.50;99.90;;;;;;4987107;28;20064;-75
2022/09/11 07:56:16;;;;;;;1.98;0.90;;;16.50;99.90;;;;;;4993877;28;20029;-75
2022/09/11 07:58:43;;;;;;;1.77;1.05;;;16.50;99.90;;;;;;4996539;28;20030;-75
2022/09/11 08:01:12;;;;;;;2.85;1.20;;;16.60;99.90;;;;;;4996277;28;20022;-75
2022/09/11 08:03:37;;;;;;;5.03;1.25;;;16.60;99.90;;;;;;4994532;28;20049;-74
2022/09/11 08:06:07;;;;;;;1.63;1.02;;;16.60;99.90;;;;;;4998685;28;20018;-75
2022/09/11 08:08:33;;;;;;;2.13;1.00;;;16.60;99.90;;;;;;4993117;28;20026;-75
2022/09/11 08:11:08;;;;;;;1.40;0.95;;;16.70;99.90;;;;;;4991216;28;21468;-75
2022/09/11 08:13:34;;;;;;;3.03;0.95;;;16.80;99.90;;;;;;4997439;28;20038;-74
2022/09/11 08:16:01;;;;;;;1.80;1.02;;;16.80;99.90;;;;;;4991922;28;20026;-75
2022/09/11 08:18:26;;;;;;;1.75;0.82;;;16.90;99.90;;;;;;4997381;28;20037;-68
2022/09/11 08:20:53;;;;;;;2.80;1.17;;;16.90;99.90;;;;;;4996252;28;20119;-68
2022/09/11 08:23:20;;;;;;;1.40;0.90;;;17.00;99.90;;;;;;4996329;28;20496;-68
2022/09/11 08:25:46;;;;;;;1.45;0.93;;;17.00;99.90;;;;;;4998731;28;20037;-76
2022/09/11 08:28:12;;;;;;;3.28;1.00;;;17.10;99.90;;;;;;5031669;23;20049;-76
2022/09/11 08:30:38;;;;;;;3.35;1.00;;;17.00;99.90;;;;;;5023784;28;20040;-78
2022/09/11 08:33:08;;;;;;;2.53;0.68;;;17.10;99.90;;;;;;5005325;28;20041;-77
2022/09/11 08:35:34;;;;;;;1.98;0.77;;;17.10;99.90;;;;;;4988862;28;20084;-76
2022/09/11 08:38:02;;;;;;;2.40;1.00;;;17.10;99.90;;;;;;5002265;28;20076;-77
2022/09/11 08:40:36;;;;;;;3.28;1.10;;;17.10;99.90;;;;;;4996036;28;20410;-77
2022/09/11 08:43:03;;;;;;;1.20;0.65;;;17.20;99.90;;;;;;5020817;23;20069;-77
2022/09/11 08:45:35;;;;;;;3.35;1.10;;;17.20;99.90;;;;;;5003141;28;20044;-77
2022/09/11 08:48:01;;;;;;;3.58;0.90;;;17.30;99.90;;;;;;5005556;28;20030;-77
2022/09/11 08:50:28;;;;;;;2.75;1.00;;;17.30;99.90;;;;;;4997538;28;21459;-72
2022/09/11 08:52:55;;;;;;;2.60;0.80;;;17.40;99.90;;;;;;5002026;28;20038;-77
2022/09/11 08:55:42;;;;;;;1.75;0.90;;;17.50;99.90;;;;;;5005682;28;20021;-77
2022/09/11 08:58:39;;;;;;;2.70;0.80;;;17.60;99.90;;;;;;5026745;28;20129;-78
2022/09/11 09:01:21;;;;;;;1.20;0.80;;;17.70;99.90;;;;;;5010347;28;20402;-76
2022/09/11 09:04:16;;;;;;;1.42;0.77;;;17.80;99.90;;;;;;5022101;28;20160;-77
2022/09/11 09:07:01;;;;;;;2.08;1.10;;;17.90;99.90;;;;;;5014454;28;20029;-77
2022/09/11 09:09:36;;;;;;;4.25;1.70;;;18.00;99.90;;;;;;5022911;28;20425;-76
2022/09/11 09:12:24;;;;;;;2.00;1.48;;;18.10;99.90;;;;;;5023959;28;20030;-77
2022/09/11 09:15:08;;;;;;;2.03;1.50;;;18.10;99.90;;;;;;5011214;28;20533;-77
2022/09/11 09:17:40;;;;;;;3.65;1.60;;;18.20;99.90;;;;;;5013611;28;20049;-77
2022/09/11 09:20:19;;;;;;;3.72;2.00;;;18.30;99.90;;;;;;5012007;28;20034;-77
2022/09/11 09:23:01;;;;;;;4.15;1.70;;;18.30;99.90;;;;;;5017745;28;20022;-78
2022/09/11 09:25:27;;;;;;;3.88;1.90;;;18.30;99.90;;;;;;5020238;28;20026;-77
2022/09/11 09:28:24;;;;;;;3.83;2.20;;;18.40;99.90;;;;;;5016490;28;20045;-79
2022/09/11 09:33:41;;;;;;;4.85;1.90;;;18.60;99.90;;;;;;4334713;26;20055;-74
2022/09/11 09:36:48;;;;;;;2.97;2.10;;;18.70;99.90;;;;;;4938053;28;20062;-75
2022/09/11 09:39:16;;;;;;;2.38;1.80;;;18.80;99.90;;;;;;4968568;28;20121;-75
2022/09/11 09:41:57;;;;;;;2.55;1.65;;;18.80;99.90;;;;;;4975611;28;20026;-75
2022/09/11 09:44:42;;;;;;;3.38;2.30;;;18.80;99.90;;;;;;4978245;28;20038;-76
2022/09/11 09:47:12;;;;;;;6.90;2.72;;;18.80;99.90;;;;;;4993471;28;20026;-77
2022/09/11 09:49:38;;;;;;;3.40;1.88;;;18.70;99.90;;;;;;5007303;28;20038;-74
2022/09/11 09:52:32;;;;;;;2.75;1.58;;;18.70;99.90;;;;;;4989574;28;20092;-71
2022/09/11 09:55:12;;;;;;;3.13;2.13;;;18.70;99.90;;;;;;4986616;28;20487;-71
2022/09/11 09:57:40;;;;;;;3.60;2.10;;;18.60;99.90;;;;;;4988113;28;21949;-75
2022/09/11 10:00:18;;;;;;;2.67;1.80;;;18.70;99.90;;;;;;4987731;28;20022;-76
2022/09/11 10:02:53;;;;;;;5.25;1.90;;;18.60;99.90;;;;;;4990869;28;20113;-76
2022/09/11 10:05:25;;;;;;;3.47;2.00;;;18.60;99.90;;;;;;5007602;28;20220;-76
2022/09/11 10:07:59;;;;;;;3.13;1.98;;;18.60;99.90;;;;;;4987902;28;20034;-76
2022/09/11 10:10:31;;;;;;;3.55;2.40;;;18.50;99.90;;;;;;4991111;28;20022;-75
2022/09/11 10:13:01;;;;;;;3.88;2.33;;;18.50;99.90;;;;;;4992052;28;20065;-75
2022/09/11 10:15:28;;;;;;;7.32;2.30;;;18.50;99.90;;;;;;4991368;28;20038;-77
2022/09/11 10:18:41;;;;;;;5.35;3.03;;;18.50;99.90;;;;;;4992388;28;20033;-76
2022/09/11 10:21:24;;;;;;;4.40;2.78;;;18.50;99.90;;;;;;4982823;28;20479;-73
2022/09/11 10:24:01;;;;;;;4.90;2.55;;;18.60;99.90;;;;;;4987163;28;20031;-73
2022/09/11 10:26:44;;;;;;;3.33;2.10;;;18.60;99.90;;;;;;4993579;28;20475;-74
2022/09/11 10:29:23;;;;;;;3.75;2.45;;;18.60;99.90;;;;;;4989682;28;20022;-74
2022/09/11 10:32:02;;;;;;;4.00;2.42;;;18.60;99.90;;;;;;4993811;28;20084;-75
2022/09/11 10:34:39;;;;;;;5.70;2.78;;;18.70;99.90;;;;;;4991939;28;20034;-74
2022/09/11 10:37:30;;;;;;;4.57;2.78;;;18.80;99.90;;;;;;4990242;28;20053;-76
2022/09/11 10:40:17;;;;;;;3.33;2.72;;;18.80;99.90;;;;;;4982125;28;20081;-76
2022/09/11 10:42:45;;;;;;;3.10;2.80;;;18.80;99.90;;;;;;4987674;28;20022;-77
2022/09/11 10:45:15;;;;;;;3.75;2.80;;;18.80;99.90;;;;;;4987564;28;20046;-77
2022/09/11 10:47:42;;;;;;;4.45;2.38;;;18.80;99.90;;;;;;4992382;28;20026;-77
2022/09/11 10:50:16;;;;;;;5.30;2.83;;;18.80;99.90;;;;;;4992688;28;20110;-78
2022/09/11 10:52:56;;;;;;;6.07;2.95;;;18.80;99.90;;;;;;4991661;28;20022;-76
2022/09/11 10:55:25;;;;;;;4.05;2.70;;;18.80;99.90;;;;;;4993909;28;20684;-77
2022/09/11 10:57:53;;;;;;;4.32;2.85;;;18.90;99.90;;;;;;4993168;28;20027;-76
2022/09/11 11:00:20;;;;;;;5.00;2.83;;;18.90;99.90;;;;;;4993370;28;20022;-77
2022/09/11 11:02:51;;;;;;;3.50;2.67;;;19.00;99.90;;;;;;4990688;28;20033;-77
2022/09/11 11:05:31;;;;;;;4.03;2.42;;;19.00;99.90;;;;;;5006633;28;20483;-77
2022/09/11 11:08:10;;;;;;;4.47;3.45;;;19.00;99.90;;;;;;5013369;28;20459;-76
2022/09/11 11:10:51;;;;;;;3.75;2.67;;;19.00;99.90;;;;;;4992102;28;20553;-77
2022/09/11 11:13:36;;;;;;;3.17;2.85;;;19.00;99.90;;;;;;4990683;28;20034;-77
2022/09/11 11:16:26;;;;;;;3.83;3.10;;;19.10;99.90;;;;;;5006396;28;20030;-76
2022/09/11 11:19:22;;;;;;;4.28;3.05;;;19.20;99.90;;;;;;4989475;28;20115;-77
2022/09/11 11:22:12;;;;;;;4.38;2.85;;;19.30;99.90;;;;;;4986030;28;20117;-77
2022/09/11 11:24:37;;;;;;;4.60;3.17;;;19.40;99.90;;;;;;4987252;28;20031;-77
2022/09/11 11:27:22;;;;;;;3.95;3.22;;;19.60;99.90;;;;;;5003031;28;20434;-77
2022/09/11 11:30:02;;;;;;;3.95;3.13;;;19.70;99.90;;;;;;4989509;28;20664;-77
2022/09/11 11:32:45;;;;;;;6.97;3.50;;;19.90;99.90;;;;;;5003834;28;20027;-77
2022/09/11 11:35:25;;;;;;;4.60;3.10;;;20.00;99.90;;;;;;4989799;28;20426;-75
2022/09/11 11:38:15;;;;;;;4.60;3.72;;;20.10;99.90;;;;;;4989296;28;20275;-77
2022/09/11 11:40:52;;;;;;;3.90;3.33;;;20.20;99.90;;;;;;4989586;28;20034;-78
2022/09/11 11:43:23;;;;;;;3.60;3.17;;;20.20;99.90;;;;;;5006817;28;20018;-75
2022/09/11 11:45:56;;;;;;;3.40;3.08;;;20.20;99.90;;;;;;5004762;28;20124;-76
2022/09/11 11:48:25;;;;;;;4.50;3.67;;;20.20;99.90;;;;;;4987522;28;20149;-77
2022/09/11 11:50:57;;;;;;;3.30;2.97;;;20.30;99.90;;;;;;4986683;28;20403;-76
2022/09/11 11:53:26;;;;;;;3.63;3.25;;;20.40;99.90;;;;;;4988564;28;20030;-77
2022/09/11 11:56:06;;;;;;;3.95;3.53;;;20.40;99.90;;;;;;4988434;28;20031;-77
2022/09/11 11:58:39;;;;;;;4.30;3.00;;;20.50;99.90;;;;;;4988570;28;20034;-76
2022/09/11 12:01:27;;;;;;;3.10;2.80;;;20.70;99.90;;;;;;4985124;28;20026;-77
2022/09/11 12:04:07;;;;;;;4.68;3.10;;;20.80;99.90;;;;;;4992226;28;20259;-77
2022/09/11 12:06:34;;;;;;;5.07;3.13;;;21.00;99.90;;;;;;4988762;28;20022;-77
2022/09/11 12:09:02;;;;;;;3.75;2.75;;;21.10;99.90;;;;;;5004989;28;20027;-77
2022/09/11 12:11:31;;;;;;;4.38;3.30;;;21.10;99.90;;;;;;5000808;28;20030;-77
2022/09/11 12:13:57;;;;;;;5.00;2.70;;;21.00;99.90;;;;;;4983852;28;20034;-75
2022/09/11 12:16:31;;;;;;;3.38;2.70;;;21.00;99.90;;;;;;4985757;28;20065;-76
2022/09/11 12:19:06;;;;;;;;;;;20.90;99.90;;;;;;4981152;28;20037;-76
2022/09/11 12:21:35;;;;;;;4.28;3.30;;;20.80;99.90;;;;;;4987218;28;20040;-76
2022/09/11 12:24:01;;;;;;;3.53;2.83;;;20.80;99.90;;;;;;4983154;28;20545;-76
2022/09/11 12:26:29;;;;;;;4.00;3.15;;;20.70;99.90;;;;;;4996315;28;20038;-74
2022/09/11 12:29:19;;;;;;;3.33;3.03;;;20.60;99.90;;;;;;4985466;28;20109;-77
2022/09/11 12:32:18;;;;;;;3.38;2.67;;;20.60;99.90;;;;;;4993146;28;20084;-77
2022/09/11 12:34:43;;;;;;;3.80;2.65;;;20.50;99.90;;;;;;4990489;28;20034;-77
2022/09/11 12:37:23;;;;;;;3.33;3.03;;;20.50;99.90;;;;;;4986860;28;20549;-76
2022/09/11 12:39:52;;;;;;;4.55;2.50;;;20.40;99.90;;;;;;4929870;28;20139;-76
2022/09/11 12:42:26;;;;;;;3.15;2.80;;;20.40;99.90;;;;;;4991160;28;20437;-76
2022/09/11 12:44:53;;;;;;;3.47;2.95;;;20.50;99.90;;;;;;4994102;28;20026;-78
2022/09/11 12:47:27;;;;;;;3.47;2.80;;;20.50;99.90;;;;;;4989550;28;20023;-77
2022/09/11 12:49:55;;;;;;;4.55;2.88;;;20.50;99.90;;;;;;4993143;28;20427;-77
2022/09/11 12:52:28;;;;;;;4.32;2.97;;;20.60;99.90;;;;;;4999516;28;20035;-76
2022/09/11 12:54:54;;;;;;;3.83;2.60;;;20.50;99.90;;;;;;4981332;28;20042;-76
2022/09/11 12:57:34;;;;;;;3.97;2.90;;;20.50;99.90;;;;;;5001530;28;20483;-78
2022/09/11 13:00:06;;;;;;;3.92;2.97;;;20.60;99.90;;;;;;5005946;28;20026;-77
2022/09/11 13:02:36;;;;;;;3.03;2.50;;;20.60;99.90;;;;;;5006603;28;20046;-77
2022/09/11 13:05:14;;;;;;;5.13;3.05;;;20.60;99.90;;;;;;4989521;28;20204;-78
2022/09/11 13:07:41;;;;;;;3.03;2.72;;;20.60;99.90;;;;;;5001895;28;20092;-77
2022/09/11 13:10:35;;;;;;;3.70;2.80;;;20.70;99.90;;;;;;5003719;28;20032;-77
2022/09/11 13:13:04;;;;;;;3.53;2.90;;;20.70;99.90;;;;;;4993619;28;20030;-77
2022/09/11 13:15:55;;;;;;;5.15;2.83;;;20.80;99.90;;;;;;4988858;28;20030;-77